Alpine, Idaho
Current Conditions -  °F | °C
As of 2:51 AM on Saturday 29 Nov 2014 (Local Time) from KMYL Reporting Station
Overcast Overcast  
Wind Chill: 31°   Ceiling: 3000
Heat Index: 40°   Visibility: 10mi
Dew Point: 31°   Wind: 17mph
Humidity: 70%   Direction: 190°S
Pressure: 29.48"   Gusts: 28mph
Location:  44.6782°N, 116.766°W
Report Text: KMYL 290951Z AUTO 19015G24KT 10SM BKN030 OVC039 04/M01 A2948 RMK AO2 PK WND 18027/0905 SLP980 T00441006
Loading
Personal Weather Stations






























Interactive Weather Map New forecast layout! Learn more

10-Day Weather Forecast

Advertisements
Track Severe Weather on mobile